Time;durP1;ratioP1;P1;durP2;ratioP2;P2;SDS_P1;SDS_P2;PMS_P1;PMS_P2;Temp;Humidity;BMP_temperature;BMP_pressure;BME280_temperature;BME280_humidity;BME280_pressure;Samples;Min_cycle;Max_cycle;Signal;HPM_P1;HPM_P2
2022/03/07 00:00:38;;;;;;;;;;;;;;;29.61;56.34;101044.38;4975899;28;66366;-40
2022/03/07 00:03:08;;;;;;;;;;;;;;;29.67;57.37;101051.69;4976025;28;69671;-39
2022/03/07 00:05:37;;;;;;;;;;;;;;;29.72;57.38;101051.06;4980264;28;66136;-40
2022/03/07 00:08:08;;;;;;;;;;;;;;;29.79;58.14;101046.50;4977527;28;70826;-38
2022/03/07 00:10:58;;;;;;;;;;;;;;;29.83;58.35;101048.53;4971073;28;66564;-38
2022/03/07 00:13:28;;;;;;;;;;;;;;;29.88;58.24;101052.50;4962860;28;69077;-48
2022/03/07 00:15:58;;;;;;;;;;;;;;;29.93;59.16;101058.13;4972350;28;66838;-39
2022/03/07 00:18:28;;;;;;;;;;;;;;;29.96;59.21;101057.72;4968368;28;70017;-39
2022/03/07 00:20:58;;;;;;;;;;;;;;;29.98;60.52;101066.44;4978704;28;66541;-39
2022/03/07 00:23:28;;;;;;;;;;;;;;;30.00;60.47;101064.34;4978681;27;70076;-39
2022/03/07 00:25:58;;;;;;;;;;;;;;;30.03;60.38;101063.91;4978338;28;66386;-39
2022/03/07 00:28:27;;;;;;;;;;;;;;;30.03;60.43;101055.81;4978278;28;69213;-39
2022/03/07 00:30:57;;;;;;;;;;;;;;;30.08;61.06;101066.84;4977060;28;67165;-39
2022/03/07 00:33:28;;;;;;;;;;;;;;;30.06;59.45;101071.59;4958861;28;69922;-38
2022/03/07 00:35:57;;;;;;;;;;;;;;;30.10;58.11;101069.34;4972905;28;66460;-38
2022/03/07 00:38:27;;;;;;;;;;;;;;;30.15;59.20;101083.91;4977097;28;69930;-39
2022/03/07 00:40:58;;;;;;;;;;;;;;;30.21;59.25;101082.22;4973355;28;66508;-39
2022/03/07 00:43:27;;;;;;;;;;;;;;;30.27;58.78;101084.09;4977157;28;69227;-38
2022/03/07 00:45:57;;;;;;;;;;;;;;;30.32;58.38;101086.19;4966948;28;66921;-38
2022/03/07 00:48:27;;;;;;;;;;;;;;;30.36;58.58;101085.53;4973471;28;69190;-38
2022/03/07 00:50:58;;;;;;;;;;;;;;;30.41;57.86;101087.63;4958580;28;66608;-39
2022/03/07 00:53:28;;;;;;;;;;;;;;;30.44;57.65;101090.72;5001449;28;70213;-38
2022/03/07 00:55:57;;;;;;;;;;;;;;;30.35;57.84;101072.22;5032142;28;66128;-38
2022/03/07 00:58:31;;;;;;;;;;;;;;;30.52;57.65;101105.91;4976754;28;70352;-38
2022/03/07 01:01:03;;;;;;;;;;;;;;;30.55;56.80;101110.91;4966469;28;66518;-39
2022/03/07 01:03:33;;;;;;;;;;;;;;;30.57;56.76;101103.41;4985797;28;69307;-39
2022/03/07 01:06:03;;;;;;;;;;;;;;;30.46;56.63;101085.13;4961980;28;66334;-38
2022/03/07 01:08:33;;;;;;;;;;;;;;;30.64;56.55;101116.91;4975597;28;69371;-38
2022/03/07 01:11:03;;;;;;;;;;;;;;;30.66;56.46;101118.34;4976395;28;67019;-38
2022/03/07 01:13:33;;;;;;;;;;;;;;;30.69;56.04;101120.63;4972987;28;70002;-40
2022/03/07 01:16:03;;;;;;;;;;;;;;;30.51;55.86;101082.59;4979717;28;65607;-39
2022/03/07 01:18:33;;;;;;;;;;;;;;;30.72;55.54;101112.09;4984620;28;70191;-39
2022/03/07 01:21:03;;;;;;;;;;;;;;;30.76;55.55;101117.06;4972241;28;65411;-37
2022/03/07 01:23:33;;;;;;;;;;;;;;;30.79;55.62;101111.25;4974032;28;70235;-38
2022/03/07 01:26:02;;;;;;;;;;;;;;;30.82;55.29;101117.09;4976207;28;66406;-40
2022/03/07 01:28:32;;;;;;;;;;;;;;;30.85;54.93;101126.66;4975796;28;70198;-38
2022/03/07 01:31:02;;;;;;;;;;;;;;;30.87;55.11;101125.41;4978521;28;66016;-37
2022/03/07 01:33:32;;;;;;;;;;;;;;;30.89;55.02;101120.59;4988017;28;69661;-38
2022/03/07 01:36:02;;;;;;;;;;;;;;;30.91;54.15;101120.38;4974666;28;66809;-38
2022/03/07 01:38:32;;;;;;;;;;;;;;;30.94;54.35;101119.97;4976762;28;69358;-40
2022/03/07 01:41:02;;;;;;;;;;;;;;;30.96;54.48;101120.56;4957977;28;66326;-39
2022/03/07 01:43:31;;;;;;;;;;;;;;;30.99;53.76;101130.16;4959330;28;70124;-38
2022/03/07 01:46:01;;;;;;;;;;;;;;;31.00;53.69;101119.09;4977294;28;66629;-38
2022/03/07 01:48:31;;;;;;;;;;;;;;;31.03;53.80;101123.25;4976915;28;70765;-38
2022/03/07 01:51:01;;;;;;;;;;;;;;;31.04;53.54;101117.63;4975890;28;65421;-38
2022/03/07 01:53:33;;;;;;;;;;;;;;;31.07;53.20;101125.31;4972977;28;69465;-38
2022/03/07 01:56:03;;;;;;;;;;;;;;;31.08;53.12;101118.84;4974813;28;66741;-38
2022/03/07 01:58:33;;;;;;;;;;;;;;;31.10;53.37;101118.63;4973122;28;69230;-38
2022/03/07 02:01:03;;;;;;;;;;;;;;;31.12;52.60;101117.38;4974381;28;65597;-38
2022/03/07 02:03:33;;;;;;;;;;;;;;;31.14;53.13;101117.16;4973306;28;68997;-38
2022/03/07 02:06:04;;;;;;;;;;;;;;;31.16;52.67;101117.75;4973677;28;67087;-38
2022/03/07 02:08:34;;;;;;;;;;;;;;;31.20;52.84;101120.88;4973621;28;69907;-39
2022/03/07 02:11:10;;;;;;;;;;;;;;;31.22;52.59;101126.91;4976061;28;66038;-38
2022/03/07 02:13:43;;;;;;;;;;;;;;;31.25;52.69;101121.06;4956230;28;70587;-39
2022/03/07 02:16:17;;;;;;;;;;;;;;;31.26;52.33;101122.69;4957106;28;66474;-38
2022/03/07 02:18:47;;;;;;;;;;;;;;;31.28;52.47;101128.75;4969196;28;70450;-38
2022/03/07 02:21:23;;;;;;;;;;;;;;;31.32;51.99;101132.69;4970543;28;66208;-38
2022/03/07 02:24:11;;;;;;;;;;;;;;;31.33;52.10;101131.63;4952283;28;69151;-38
2022/03/07 02:26:54;;;;;;;;;;;;;;;31.37;51.82;101141.00;4974742;28;65713;-38
2022/03/07 02:29:25;;;;;;;;;;;;;;;31.37;51.71;101136.44;4958669;28;70439;-38
2022/03/07 02:32:00;;;;;;;;;;;;;;;31.40;51.59;101140.59;4976559;28;65751;-38
2022/03/07 02:34:32;;;;;;;;;;;;;;;31.43;51.36;101140.16;4958379;28;70124;-38
2022/03/07 02:37:03;;;;;;;;;;;;;;;31.44;51.43;101147.25;4967608;28;67043;-39
2022/03/07 02:39:53;;;;;;;;;;;;;;;31.47;51.61;101140.56;4972617;28;69909;-38
2022/03/07 02:42:43;;;;;;;;;;;;;;;31.49;51.31;101144.72;4978829;28;66879;-38
2022/03/07 02:45:12;;;;;;;;;;;;;;;31.51;51.38;101142.63;4965893;28;69849;-38
2022/03/07 02:47:45;;;;;;;;;;;;;;;31.54;51.18;101142.19;4960887;28;66268;-38
2022/03/07 02:50:15;;;;;;;;;;;;;;;31.57;51.29;101138.22;4965493;28;69370;-38
2022/03/07 02:52:45;;;;;;;;;;;;;;;31.58;50.85;101126.28;4977695;28;66334;-38
2022/03/07 02:55:15;;;;;;;;;;;;;;;31.61;51.05;101123.97;4976039;28;69403;-39
2022/03/07 02:57:47;;;;;;;;;;;;;;;31.63;51.23;101136.50;4980180;28;65295;-39
2022/03/07 03:00:17;;;;;;;;;;;;;;;31.64;50.96;101130.84;4959642;28;70511;-38
2022/03/07 03:02:48;;;;;;;;;;;;;;;31.67;51.03;101126.84;4956697;28;65644;-38
2022/03/07 03:05:18;;;;;;;;;;;;;;;31.70;51.02;101123.69;4976503;28;70167;-38
2022/03/07 03:07:53;;;;;;;;;;;;;;;31.73;51.09;101115.97;4967591;28;66260;-38
2022/03/07 03:10:23;;;;;;;;;;;;;;;31.74;50.79;101111.38;4975963;28;69688;-37
2022/03/07 03:12:52;;;;;;;;;;;;;;;31.76;50.82;101114.69;4979783;27;66094;-39
2022/03/07 03:15:23;;;;;;;;;;;;;;;31.78;50.58;101110.69;4978905;28;70616;-39
2022/03/07 03:17:52;;;;;;;;;;;;;;;31.81;50.57;101098.56;4958926;28;66172;-40
2022/03/07 03:20:22;;;;;;;;;;;;;;;31.84;50.51;101084.56;4972188;28;69643;-39
2022/03/07 03:22:54;;;;;;;;;;;;;;;31.86;50.73;101089.78;4978310;28;65977;-38
2022/03/07 03:25:24;;;;;;;;;;;;;;;31.88;50.99;101085.78;4968417;28;69257;-38
2022/03/07 03:27:56;;;;;;;;;;;;;;;31.90;50.22;101081.00;4977326;28;66468;-39
2022/03/07 03:30:26;;;;;;;;;;;;;;;31.92;50.48;101081.59;4978551;28;69381;-38
2022/03/07 03:32:57;;;;;;;;;;;;;;;31.94;50.16;101079.50;4977879;27;66346;-37
2022/03/07 03:35:27;;;;;;;;;;;;;;;31.96;49.96;101077.41;4978001;28;69813;-40
2022/03/07 03:37:58;;;;;;;;;;;;;;;31.98;49.99;101072.59;4963011;28;65714;-39
2022/03/07 03:40:28;;;;;;;;;;;;;;;32.00;50.53;101073.19;4977183;27;70312;-38
2022/03/07 03:42:59;;;;;;;;;;;;;;;32.01;50.24;101074.84;4977643;28;66393;-37
2022/03/07 03:45:32;;;;;;;;;;;;;;;32.03;50.18;101070.00;4974421;28;70823;-37
2022/03/07 03:48:02;;;;;;;;;;;;;;;32.06;50.28;101068.75;4965946;27;66919;-39
2022/03/07 03:50:32;;;;;;;;;;;;;;;32.07;50.08;101058.72;4969499;28;69748;-39
2022/03/07 03:53:03;;;;;;;;;;;;;;;32.07;49.98;101059.56;4971760;28;66367;-40
2022/03/07 03:55:33;;;;;;;;;;;;;;;32.10;50.18;101052.88;4979418;27;70427;-40
2022/03/07 03:58:04;;;;;;;;;;;;;;;32.12;50.05;101048.00;4978170;27;66553;-38
2022/03/07 04:00:34;;;;;;;;;;;;;;;32.13;50.21;101049.69;4976944;28;70168;-38
2022/03/07 04:03:06;;;;;;;;;;;;;;;32.15;50.04;101045.72;4977414;28;66571;-40
2022/03/07 04:05:36;;;;;;;;;;;;;;;32.17;50.28;101040.03;4971174;28;69266;-38
2022/03/07 04:08:06;;;;;;;;;;;;;;;32.19;50.23;101046.06;4976017;28;65212;-38
2022/03/07 04:10:36;;;;;;;;;;;;;;;32.19;49.66;101044.19;4981737;28;69768;-37
2022/03/07 04:13:05;;;;;;;;;;;;;;;32.22;50.30;101045.63;4970274;28;66110;-38
2022/03/07 04:15:38;;;;;;;;;;;;;;;32.23;49.79;101031.84;4971728;28;69783;-37
2022/03/07 04:18:08;;;;;;;;;;;;;;;32.26;49.60;101031.38;4977521;28;66446;-38
2022/03/07 04:20:39;;;;;;;;;;;;;;;32.28;49.65;101029.25;4963859;28;70393;-38
2022/03/07 04:23:08;;;;;;;;;;;;;;;32.31;49.71;101027.97;4989901;28;66627;-38
2022/03/07 04:25:38;;;;;;;;;;;;;;;32.33;50.01;101015.00;4977725;28;69186;-38
2022/03/07 04:28:09;;;;;;;;;;;;;;;32.36;49.69;101013.72;4976687;28;65505;-38
2022/03/07 04:30:38;;;;;;;;;;;;;;;32.37;49.81;100999.91;4979249;27;70243;-38
2022/03/07 04:33:09;;;;;;;;;;;;;;;32.39;49.65;100997.81;4972770;28;65907;-39
2022/03/07 04:35:38;;;;;;;;;;;;;;;32.42;49.62;100996.53;4975527;28;69946;-38
2022/03/07 04:38:08;;;;;;;;;;;;;;;32.44;49.70;100989.81;4972555;28;66419;-38
2022/03/07 04:40:38;;;;;;;;;;;;;;;32.46;49.63;100982.31;4967502;28;69771;-38
2022/03/07 04:43:08;;;;;;;;;;;;;;;32.48;49.82;100990.19;4979435;28;66732;-38
2022/03/07 04:45:38;;;;;;;;;;;;;;;32.52;49.78;100979.72;4973955;28;70049;-39
2022/03/07 04:48:08;;;;;;;;;;;;;;;32.54;49.67;100983.03;4959824;28;64549;-39
2022/03/07 04:50:38;;;;;;;;;;;;;;;32.55;49.33;100980.09;4978263;28;69729;-39
2022/03/07 04:53:08;;;;;;;;;;;;;;;32.57;49.47;100971.69;4974920;28;65326;-38
2022/03/07 04:55:38;;;;;;;;;;;;;;;32.60;49.14;100969.38;4971290;27;69517;-38
2022/03/07 04:58:08;;;;;;;;;;;;;;;32.61;49.31;100957.44;4994307;27;65718;-40
2022/03/07 05:00:39;;;;;;;;;;;;;;;32.64;49.18;100950.72;4980598;28;70741;-38
2022/03/07 05:03:09;;;;;;;;;;;;;;;32.66;49.62;100941.28;4996421;27;66675;-39
2022/03/07 05:05:40;;;;;;;;;;;;;;;32.67;49.52;100939.41;4982090;27;70258;-42
2022/03/07 05:08:13;;;;;;;;;;;;;;;32.70;49.37;100928.88;4995819;27;66338;-39
2022/03/07 05:10:44;;;;;;;;;;;;;;;32.74;49.03;100934.72;4992012;27;69738;-37
2022/03/07 05:13:14;;;;;;;;;;;;;;;32.75;48.99;100928.19;4975415;28;65699;-37
2022/03/07 05:15:44;;;;;;;;;;;;;;;32.77;49.25;100920.66;4976960;28;69406;-38
2022/03/07 05:18:18;;;;;;;;;;;;;;;32.80;48.98;100917.47;4974597;28;65584;-38
2022/03/07 05:20:50;;;;;;;;;;;;;;;32.81;49.11;100910.16;4961198;28;70246;-41
2022/03/07 05:23:28;;;;;;;;;;;;;;;32.81;48.97;100908.25;4956406;28;66707;-41
2022/03/07 05:25:58;;;;;;;;;;;;;;;32.83;49.20;100900.72;4960111;28;70896;-38
2022/03/07 05:28:28;;;;;;;;;;;;;;;32.86;49.06;100893.97;4976426;28;66663;-45
2022/03/07 05:30:59;;;;;;;;;;;;;;;32.87;49.12;100880.16;4977959;28;69776;-38
2022/03/07 05:33:29;;;;;;;;;;;;;;;32.88;48.79;100876.38;4970183;28;66604;-42
2022/03/07 05:35:59;;;;;;;;;;;;;;;32.89;49.05;100878.03;4974953;28;70790;-38
2022/03/07 05:38:29;;;;;;;;;;;;;;;32.92;48.91;100869.41;4977089;28;67103;-38
2022/03/07 05:40:59;;;;;;;;;;;;;;;32.93;48.84;100860.22;4970626;28;69270;-39
2022/03/07 05:43:29;;;;;;;;;;;;;;;32.96;48.97;100856.19;4962400;27;66068;-39
2022/03/07 05:45:59;;;;;;;;;;;;;;;32.98;48.86;100850.50;4959416;28;69937;-39
2022/03/07 05:48:29;;;;;;;;;;;;;;;32.99;48.65;100839.41;4977680;28;67087;-38
2022/03/07 05:50:58;;;;;;;;;;;;;;;33.02;48.74;100838.16;4976208;28;69290;-38
2022/03/07 05:53:28;;;;;;;;;;;;;;;33.03;48.73;100846.06;4977229;28;66223;-38
2022/03/07 05:55:58;;;;;;;;;;;;;;;33.07;48.59;100840.97;4976891;28;70531;-38
2022/03/07 05:58:28;;;;;;;;;;;;;;;33.10;48.72;100835.09;4974972;28;65548;-38
2022/03/07 06:00:58;;;;;;;;;;;;;;;33.10;48.69;100822.31;4978566;27;69755;-40
2022/03/07 06:03:28;;;;;;;;;;;;;;;33.12;48.82;100816.63;4976211;28;66352;-39
2022/03/07 06:05:58;;;;;;;;;;;;;;;33.16;48.43;100812.38;4975917;28;70539;-39
2022/03/07 06:08:28;;;;;;;;;;;;;;;33.18;48.79;100810.25;4976517;28;66684;-39
2022/03/07 06:10:57;;;;;;;;;;;;;;;33.06;48.57;100779.53;4984698;27;69653;-39
2022/03/07 06:13:27;;;;;;;;;;;;;;;33.23;48.70;100796.75;4976320;28;65481;-41
2022/03/07 06:15:57;;;;;;;;;;;;;;;33.27;48.56;100797.13;4976133;28;69255;-38
2022/03/07 06:18:27;;;;;;;;;;;;;;;33.28;48.63;100788.72;4979295;28;66731;-39
2022/03/07 06:20:56;;;;;;;;;;;;;;;33.30;48.66;100781.16;4981411;27;69525;-38
2022/03/07 06:23:26;;;;;;;;;;;;;;;33.32;48.67;100776.31;4990585;28;66684;-39
2022/03/07 06:25:56;;;;;;;;;;;;;;;33.34;48.57;100776.06;4996145;27;69911;-39
2022/03/07 06:28:26;;;;;;;;;;;;;;;33.36;48.65;100776.66;4980303;28;66235;-38
2022/03/07 06:30:56;;;;;;;;;;;;;;;33.38;48.52;100778.06;4979446;28;69234;-39
2022/03/07 06:33:26;;;;;;;;;;;;;;;33.39;48.61;100773.47;4977795;28;67203;-38
2022/03/07 06:35:55;;;;;;;;;;;;;;;33.40;48.48;100764.22;4979027;28;70157;-39
2022/03/07 06:38:25;;;;;;;;;;;;;;;33.44;48.43;100756.44;4978492;28;65510;-39
2022/03/07 06:40:55;;;;;;;;;;;;;;;33.46;48.55;100748.84;4978067;27;70332;-39
2022/03/07 06:43:25;;;;;;;;;;;;;;;33.49;48.57;100745.63;4973106;28;66562;-39
2022/03/07 06:45:55;;;;;;;;;;;;;;;33.50;48.49;100741.88;4970751;28;70390;-39
2022/03/07 06:48:25;;;;;;;;;;;;;;;33.52;48.61;100740.59;4926989;28;66335;-36
2022/03/07 06:50:55;;;;;;;;;;;;;;;33.54;48.72;100732.16;4970961;28;69617;-39
2022/03/07 06:53:24;;;;;;;;;;;;;;;33.56;48.56;100730.03;4981897;27;66696;-39
2022/03/07 06:55:54;;;;;;;;;;;;;;;33.59;48.71;100735.00;4980868;27;70262;-37
2022/03/07 06:58:24;;;;;;;;;;;;;;;33.60;48.79;100725.78;4978983;28;66306;-39
2022/03/07 07:00:56;;;;;;;;;;;;;;;33.62;49.03;100728.25;4978918;28;70316;-39
2022/03/07 07:03:26;;;;;;;;;;;;;;;33.63;48.58;100719.84;4977499;28;65907;-38
2022/03/07 07:05:56;;;;;;;;;;;;;;;33.65;48.71;100708.72;4978275;28;69931;-38
2022/03/07 07:08:25;;;;;;;;;;;;;;;33.66;48.66;100704.94;4981627;27;67012;-39
2022/03/07 07:10:55;;;;;;;;;;;;;;;33.68;48.63;100698.16;4945243;28;69948;-38
2022/03/07 07:13:25;;;;;;;;;;;;;;;33.69;48.60;100702.56;4968024;28;65598;-39
2022/03/07 07:15:55;;;;;;;;;;;;;;;33.72;48.47;100696.63;4977099;28;70206;-38
2022/03/07 07:18:26;;;;;;;;;;;;;;;33.74;48.42;100678.19;4977842;28;66810;-39
2022/03/07 07:20:56;;;;;;;;;;;;;;;33.77;48.61;100676.88;4977705;28;70627;-46
2022/03/07 07:23:26;;;;;;;;;;;;;;;33.80;48.58;100666.31;4978855;28;66071;-39
2022/03/07 07:25:56;;;;;;;;;;;;;;;33.85;48.43;100662.00;4977365;28;70799;-39
2022/03/07 07:28:26;;;;;;;;;;;;;;;33.87;48.31;100665.31;4978283;28;65359;-39
2022/03/07 07:30:55;;;;;;;;;;;;;;;33.90;48.50;100659.38;4978079;28;68833;-38
2022/03/07 07:33:25;;;;;;;;;;;;;;;33.93;48.27;100650.72;4977370;28;65475;-38
2022/03/07 07:35:55;;;;;;;;;;;;;;;33.96;48.32;100652.94;4982208;27;70126;-39
2022/03/07 07:38:25;;;;;;;;;;;;;;;33.99;48.36;100647.00;4981004;28;66444;-39
2022/03/07 07:40:55;;;;;;;;;;;;;;;34.01;48.13;100642.97;4976227;28;70114;-39
2022/03/07 07:43:25;;;;;;;;;;;;;;;34.04;48.30;100644.38;4982636;28;66747;-39
2022/03/07 07:45:55;;;;;;;;;;;;;;;34.08;48.27;100639.31;4978636;28;70599;-38
2022/03/07 07:48:25;;;;;;;;;;;;;;;34.10;48.21;100632.53;4979455;28;66245;-40
2022/03/07 07:50:54;;;;;;;;;;;;;;;34.13;48.17;100626.59;4980027;28;70581;-38
2022/03/07 07:53:24;;;;;;;;;;;;;;;34.17;47.99;100624.19;4981842;28;65795;-37
2022/03/07 07:55:54;;;;;;;;;;;;;;;34.20;48.03;100615.53;4977366;28;70091;-40
2022/03/07 07:58:24;;;;;;;;;;;;;;;34.22;48.08;100606.03;4981203;28;67049;-39
2022/03/07 08:00:53;;;;;;;;;;;;;;;34.26;48.08;100611.81;4978321;28;69838;-39
2022/03/07 08:03:24;;;;;;;;;;;;;;;34.29;47.83;100607.75;4980586;28;66555;-41
2022/03/07 08:05:55;;;;;;;;;;;;;;;34.31;48.00;100602.91;4978781;28;69085;-39
2022/03/07 08:08:25;;;;;;;;;;;;;;;34.35;47.76;100598.59;4978947;28;66866;-39
2022/03/07 08:10:54;;;;;;;;;;;;;;;34.37;47.97;100594.53;4965279;28;70519;-38
2022/03/07 08:13:24;;;;;;;;;;;;;;;34.40;47.77;100588.59;4978950;28;66578;-39
2022/03/07 08:15:54;;;;;;;;;;;;;;;34.43;47.62;100587.25;4977368;28;69100;-39
2022/03/07 08:18:24;;;;;;;;;;;;;;;34.47;47.68;100596.59;4978479;27;66089;-39
2022/03/07 08:20:56;;;;;;;;;;;;;;;34.49;47.78;100586.25;4978172;28;70745;-39
2022/03/07 08:23:27;;;;;;;;;;;;;;;34.52;47.70;100588.50;4987400;27;66227;-38
2022/03/07 08:25:58;;;;;;;;;;;;;;;34.56;47.62;100589.66;4979177;27;69530;-38
2022/03/07 08:28:28;;;;;;;;;;;;;;;34.59;47.68;100580.97;4967798;28;65398;-38
2022/03/07 08:30:57;;;;;;;;;;;;;;;34.63;47.29;100576.69;4972867;28;70220;-38
2022/03/07 08:33:31;;;;;;;;;;;;;;;34.67;47.63;100583.25;4974840;28;66516;-38
2022/03/07 08:36:01;;;;;;;;;;;;;;;34.70;47.45;100588.19;4978077;28;70115;-39
2022/03/07 08:38:32;;;;;;;;;;;;;;;34.72;47.34;100587.97;4960753;28;66528;-39
2022/03/07 08:41:03;;;;;;;;;;;;;;;34.78;47.31;100586.13;4973430;28;70124;-39
2022/03/07 08:43:33;;;;;;;;;;;;;;;34.81;47.50;100589.16;4977352;28;66588;-38
2022/03/07 08:46:03;;;;;;;;;;;;;;;34.85;47.02;100605.81;4964126;28;69460;-39
2022/03/07 08:48:33;;;;;;;;;;;;;;;34.89;47.23;100606.97;4989802;28;65992;-39
2022/03/07 08:51:03;;;;;;;;;;;;;;;34.93;46.97;100597.19;4984855;28;70395;-39
2022/03/07 08:53:33;;;;;;;;;;;;;;;34.95;47.04;100595.03;4980522;28;65038;-52
2022/03/07 08:56:04;;;;;;;;;;;;;;;34.99;46.83;100604.34;4977074;28;69344;-40
2022/03/07 08:58:54;;;;;;;;;;;;;;;35.02;47.01;100606.56;4980149;28;66016;-38
2022/03/07 09:01:24;;;;;;;;;;;;;;;35.05;46.81;100606.06;4978800;28;69501;-38
2022/03/07 09:03:54;;;;;;;;;;;;;;;35.10;47.09;100605.31;4977226;27;65618;-39
2022/03/07 09:06:24;;;;;;;;;;;;;;;35.12;46.74;100609.44;4988947;28;70819;-39
2022/03/07 09:08:54;;;;;;;;;;;;;;;35.16;46.96;100606.19;4979707;28;67303;-39
2022/03/07 09:11:45;;;;;;;;;;;;;;;35.17;46.64;100594.22;4978380;28;70401;-39
2022/03/07 09:14:15;;;;;;;;;;;;;;;35.18;46.93;100601.31;4976928;28;67082;-39
2022/03/07 09:16:45;;;;;;;;;;;;;;;35.19;46.75;100601.06;4977398;28;70252;-39
2022/03/07 09:19:15;;;;;;;;;;;;;;;35.22;46.64;100594.28;4975098;28;66316;-39
2022/03/07 09:21:45;;;;;;;;;;;;;;;35.23;47.07;100591.28;4967024;28;70098;-40
2022/03/07 09:24:16;;;;;;;;;;;;;;;35.24;46.66;100597.56;4976342;28;66483;-39
2022/03/07 09:26:45;;;;;;;;;;;;;;;35.26;46.71;100595.41;4943259;28;69599;-38
2022/03/07 09:29:16;;;;;;;;;;;;;;;35.28;47.24;100598.69;4989576;28;65820;-38
2022/03/07 09:31:46;;;;;;;;;;;;;;;35.27;46.87;100592.44;4946759;28;69122;-39
2022/03/07 09:34:16;;;;;;;;;;;;;;;35.28;47.24;100595.97;4975101;28;66030;-39
2022/03/07 09:36:45;;;;;;;;;;;;;;;35.28;46.79;100598.69;4977071;28;70475;-38
2022/03/07 09:39:15;;;;;;;;;;;;;;;35.28;46.82;100593.25;4974056;28;66606;-39
2022/03/07 09:41:45;;;;;;;;;;;;;;;35.29;47.26;100605.78;4984441;28;70803;-38
2022/03/07 09:44:14;;;;;;;;;;;;;;;35.29;46.94;100605.78;4951480;28;66376;-41
2022/03/07 09:46:45;;;;;;;;;;;;;;;35.28;47.22;100599.50;4982418;28;69114;-46
2022/03/07 09:49:15;;;;;;;;;;;;;;;35.28;46.78;100593.25;4982161;28;66501;-39
2022/03/07 09:51:45;;;;;;;;;;;;;;;35.27;47.17;100588.84;4980852;28;69471;-39
2022/03/07 09:54:14;;;;;;;;;;;;;;;35.26;47.05;100589.94;4972913;28;66866;-39
2022/03/07 09:56:44;;;;;;;;;;;;;;;35.26;47.24;100579.03;4997087;27;70603;-38
2022/03/07 09:59:15;;;;;;;;;;;;;;;35.25;46.96;100588.31;4982845;28;66286;-38
2022/03/07 10:01:57;;;;;;;;;;;;;;;35.24;47.06;100578.47;4982527;28;69656;-39
2022/03/07 10:04:28;;;;;;;;;;;;;;;35.22;47.01;100578.75;4982033;28;66053;-39
2022/03/07 10:07:02;;;;;;;;;;;;;;;35.21;47.58;100582.53;4968434;28;69132;-39
2022/03/07 10:09:31;;;;;;;;;;;;;;;35.21;47.09;100587.16;4982460;28;66596;-39
2022/03/07 10:12:03;;;;;;;;;;;;;;;35.21;47.54;100589.88;4983238;28;70552;-40
2022/03/07 10:14:44;;;;;;;;;;;;;;;35.19;47.71;100589.31;4967895;28;66130;-40
2022/03/07 10:17:17;;;;;;;;;;;;;;;35.15;47.52;100605.38;4967574;28;69926;-38
2022/03/07 10:19:47;;;;;;;;;;;;;;;35.14;47.19;100609.19;4982556;28;66480;-38
2022/03/07 10:22:19;;;;;;;;;;;;;;;35.10;47.48;100606.16;4983196;28;70505;-38
2022/03/07 10:25:07;;;;;;;;;;;;;;;35.11;47.42;100601.53;5037110;28;66673;-39
2022/03/07 10:27:45;;;;;;;;;;;;;;;35.08;47.79;100599.31;4982736;28;70559;-39
2022/03/07 10:30:20;;;;;;;;;;;;;;;35.04;47.62;100618.03;4979834;28;66632;-38
2022/03/07 10:32:56;;;;;;;;;;;;;;;35.02;47.65;100628.38;4981112;28;70092;-39
2022/03/07 10:35:30;;;;;;;;;;;;;;;35.00;47.76;100611.44;4980920;28;59725;-39
2022/03/07 10:38:01;;;;;;;;;;;;;;;34.98;47.61;100599.97;4983642;28;68645;-39
2022/03/07 10:40:33;;;;;;;;;;;;;;;34.95;47.84;100600.47;4970760;28;66159;-39
2022/03/07 10:43:04;;;;;;;;;;;;;;;34.94;47.96;100601.56;4981806;27;69567;-41
2022/03/07 10:45:53;;;;;;;;;;;;;;;34.85;49.55;100612.09;4985300;27;67025;-39
2022/03/07 10:48:27;;;;;;;;;;;;;;;34.65;51.42;100612.66;4982460;28;69080;-41
2022/03/07 10:50:58;;;;;;;;;;;;;;;34.55;51.72;100615.22;4975299;28;66147;-40
2022/03/07 10:53:27;;;;;;;;;;;;;;;34.42;51.96;100612.84;4971126;28;70435;-40
2022/03/07 10:55:59;;;;;;;;;;;;;;;34.29;53.13;100622.19;4970532;28;66205;-39
2022/03/07 10:58:28;;;;;;;;;;;;;;;34.24;53.28;100628.41;4975327;28;68579;-40
2022/03/07 11:00:59;;;;;;;;;;;;;;;34.17;54.15;100627.75;4978204;28;67075;-40
2022/03/07 11:03:31;;;;;;;;;;;;;;;34.14;54.97;100630.97;4979108;28;70259;-40
2022/03/07 11:06:02;;;;;;;;;;;;;;;34.06;55.12;100634.09;4978235;28;65326;-40
2022/03/07 11:08:32;;;;;;;;;;;;;;;33.97;55.10;100643.72;4977593;27;70744;-40
2022/03/07 11:11:02;;;;;;;;;;;;;;;33.91;55.09;100636.56;4990329;27;66536;-40
2022/03/07 11:13:34;;;;;;;;;;;;;;;33.89;56.01;100646.84;4976820;28;70169;-41
2022/03/07 11:16:05;;;;;;;;;;;;;;;33.83;56.31;100643.22;4975087;28;67025;-39
2022/03/07 11:18:35;;;;;;;;;;;;;;;33.78;56.32;100646.69;4975146;28;69867;-39
2022/03/07 11:21:06;;;;;;;;;;;;;;;33.76;56.43;100658.88;4971917;28;66285;-39
2022/03/07 11:23:37;;;;;;;;;;;;;;;33.72;56.23;100658.53;4976488;28;70560;-39
2022/03/07 11:26:09;;;;;;;;;;;;;;;33.69;56.64;100659.03;4969665;28;66466;-40
2022/03/07 11:28:39;;;;;;;;;;;;;;;33.67;56.49;100666.59;4985471;28;68730;-39
2022/03/07 11:31:18;;;;;;;;;;;;;;;33.60;55.40;100665.94;4977071;28;65970;-38
2022/03/07 11:33:52;;;;;;;;;;;;;;;33.48;54.21;100667.84;4976314;28;70676;-39
2022/03/07 11:36:22;;;;;;;;;;;;;;;33.40;53.99;100665.53;4973123;28;65567;-39
2022/03/07 11:38:57;;;;;;;;;;;;;;;33.28;53.71;100663.69;4978838;28;70591;-38
2022/03/07 11:41:31;;;;;;;;;;;;;;;33.18;53.95;100668.91;4985408;28;66503;-39
2022/03/07 11:44:02;;;;;;;;;;;;;;;33.09;53.59;100667.63;4964951;28;70683;-38
2022/03/07 11:46:37;;;;;;;;;;;;;;;33.09;53.94;100675.78;4975599;28;66349;-39
2022/03/07 11:49:09;;;;;;;;;;;;;;;33.05;54.13;100674.63;4975918;28;69148;-39
2022/03/07 11:51:41;;;;;;;;;;;;;;;32.99;54.31;100680.97;4981145;27;66245;-38
2022/03/07 11:54:23;;;;;;;;;;;;;;;32.96;54.70;100671.44;4978999;28;70129;-40
2022/03/07 11:57:05;;;;;;;;;;;;;;;32.94;54.42;100679.81;4977977;28;67110;-39
2022/03/07 11:59:35;;;;;;;;;;;;;;;32.92;54.41;100671.06;4975914;28;69900;-37
2022/03/07 12:02:05;;;;;;;;;;;;;;;32.89;54.35;100676.97;4976849;28;66001;-39
2022/03/07 12:04:39;;;;;;;;;;;;;;;32.88;54.77;100675.34;4977521;28;70025;-38
2022/03/07 12:07:10;;;;;;;;;;;;;;;32.87;54.68;100679.09;4972554;28;66503;-39
2022/03/07 12:09:40;;;;;;;;;;;;;;;32.88;55.09;100679.94;4975245;28;70698;-41
2022/03/07 12:12:14;;;;;;;;;;;;;;;32.87;54.68;100673.66;4968941;28;66264;-40
2022/03/07 12:14:45;;;;;;;;;;;;;;;32.82;54.82;100681.72;4977440;28;70192;-39
2022/03/07 12:17:15;;;;;;;;;;;;;;;32.80;54.56;100678.41;4967710;28;66588;-40
2022/03/07 12:19:53;;;;;;;;;;;;;;;32.76;54.38;100692.72;4978507;27;70405;-39
2022/03/07 12:22:24;;;;;;;;;;;;;;;32.74;54.26;100690.25;4978009;28;67321;-40
2022/03/07 12:24:59;;;;;;;;;;;;;;;32.74;54.77;100687.53;4976496;28;69765;-39
2022/03/07 12:27:37;;;;;;;;;;;;;;;32.71;54.32;100696.16;4977193;28;65798;-39
2022/03/07 12:30:09;;;;;;;;;;;;;;;32.73;55.17;100704.88;4976347;28;69903;-40
2022/03/07 12:32:39;;;;;;;;;;;;;;;32.70;54.59;100703.44;4957301;28;66115;-44
2022/03/07 12:35:10;;;;;;;;;;;;;;;32.66;55.20;100702.28;4976314;28;69978;-38
2022/03/07 12:37:40;;;;;;;;;;;;;;;32.67;55.31;100700.38;4979682;28;65830;-40
2022/03/07 12:40:11;;;;;;;;;;;;;;;32.65;55.27;100699.78;4974571;28;69232;-38
2022/03/07 12:42:45;;;;;;;;;;;;;;;32.60;54.84;100702.41;4973409;28;66252;-40
2022/03/07 12:45:18;;;;;;;;;;;;;;;32.56;54.62;100698.50;4970189;27;70275;-38
2022/03/07 12:47:52;;;;;;;;;;;;;;;32.55;55.09;100696.88;4981573;28;66325;-38
2022/03/07 12:50:28;;;;;;;;;;;;;;;32.53;54.96;100704.41;4977219;28;70888;-41
2022/03/07 12:52:58;;;;;;;;;;;;;;;32.57;55.71;100706.44;4974740;28;65791;-40
2022/03/07 12:55:28;;;;;;;;;;;;;;;32.59;55.26;100704.28;4973555;28;69917;-41